LEBG

Details ICAO LEBG (RGS)
Name Burgos-Villafría
Region Spain
Timezone Europe/Madrid (UTC+2.0)
Plans Departing 181
Arriving 116
Stats Elevation 2,962 ft / 903 m (AMSL)
Location 42.357400° -3.613630°
Runways 1
Magnetic Variation 0.306° W
Sunrise 2021-10-26 06:41:29 UTC / 2021-10-26 08:41:29 Local
Sunset 2021-10-26 17:17:41 UTC / 2021-10-26 19:17:41 Local
Advertisement - Login to hide

Runways

ID Width Length Bearing (true/mag) Surface Threshold Overrun Markings Lighting
04 148 ft / 45 m 6,889 ft / 2,100 m 43.00° / 43.31° ASPHALT 0 ft / 0 m 0 ft / 0 m PREC-APP EDGE THRESHOLD SALS REIL-OMNI
22 148 ft / 45 m 6,889 ft / 2,100 m 223.01° / 223.32° ASPHALT 0 ft / 0 m 0 ft / 0 m PREC-APP EDGE THRESHOLD SALS REIL-OMNI

Map

Weather


0- 5 10 15 20 25 30 35+ Temperature / °C

Clouds and Precipitation
Forecast for 2021-10-26 12:00 UTC. Updated 5 hours ago

Ground ~20,000 ft ~40,000 ft Winds

METAR

LEBG 261500Z 01002KT 9999 FEW038 17/05 Q1024

TAF

TAF LEBG 261400Z 2615/2715 02003KT CAVOK TX19/2715Z TN01/2706Z= TAF LELN 261400Z 2615/2715 VRB03KT CAVOK TX18/2715Z TN00/2705Z

Frequencies

Recorded 125.42 MHz Burgos Information
Approach 118.45 MHz Vitoria Approach
Tower 118.92 MHz Burgos Tower
Warning: Do not use this data for real-world aviation or navigation. No guarantee of current accuracy is given.